createdAt,value
2023-01-31T00:00:15.869Z,7.22
2023-01-31T00:02:44.734Z,7.30
2023-01-31T00:05:13.400Z,7.20
2023-01-31T00:07:43.307Z,7.18
2023-01-31T00:10:13.153Z,7.30
2023-01-31T00:12:44.024Z,7.18
2023-01-31T00:15:14.284Z,7.16
2023-01-31T00:17:45.381Z,7.13
2023-01-31T00:20:14.983Z,7.14
2023-01-31T00:22:44.060Z,7.05
2023-01-31T00:25:13.624Z,7.05
2023-01-31T00:27:42.467Z,6.89
2023-01-31T00:30:13.411Z,6.96
2023-01-31T00:32:44.561Z,6.88
2023-01-31T00:35:13.513Z,6.74
2023-01-31T00:37:41.994Z,6.82
2023-01-31T00:40:13.243Z,6.65
2023-01-31T00:42:42.017Z,6.77
2023-01-31T00:45:12.544Z,6.70
2023-01-31T00:47:41.450Z,6.59
2023-01-31T00:50:16.169Z,6.55
2023-01-31T00:52:44.913Z,6.59
2023-01-31T00:55:13.747Z,6.61
2023-01-31T00:57:42.912Z,6.46
2023-01-31T01:00:13.607Z,6.63
2023-01-31T01:02:42.639Z,6.60
2023-01-31T01:05:13.580Z,6.72
2023-01-31T01:07:42.593Z,6.69
2023-01-31T01:10:13.492Z,6.62
2023-01-31T01:12:42.165Z,6.63
2023-01-31T01:15:12.259Z,6.58
2023-01-31T01:17:41.046Z,6.67
2023-01-31T01:20:14.299Z,6.44
2023-01-31T01:22:44.354Z,6.51
2023-01-31T01:25:14.011Z,6.48
2023-01-31T01:27:44.126Z,6.21
2023-01-31T01:30:14.657Z,6.45
2023-01-31T01:32:44.258Z,6.22
2023-01-31T01:35:16.016Z,6.34
2023-01-31T01:37:45.407Z,6.48
2023-01-31T01:40:15.086Z,6.45
2023-01-31T01:42:44.369Z,6.41
2023-01-31T01:45:21.156Z,6.55
2023-01-31T01:47:54.494Z,6.59
2023-01-31T01:50:33.128Z,6.57
2023-01-31T01:53:11.090Z,6.69
2023-01-31T01:55:44.062Z,6.72
2023-01-31T01:58:17.378Z,6.65
2023-01-31T02:00:48.668Z,6.76
2023-01-31T02:03:18.433Z,6.76
2023-01-31T02:05:53.431Z,6.82
2023-01-31T02:08:25.451Z,7.00
2023-01-31T02:10:58.424Z,7.07
2023-01-31T02:13:29.625Z,6.94
2023-01-31T02:15:59.870Z,6.89
2023-01-31T02:18:29.650Z,7.14
2023-01-31T02:21:47.767Z,7.18
2023-01-31T02:25:06.900Z,7.24
2023-01-31T02:28:24.732Z,7.23
2023-01-31T02:31:47.785Z,7.24
2023-01-31T02:34:27.167Z,7.14
2023-01-31T02:37:14.375Z,7.22
2023-01-31T02:39:54.738Z,7.22
2023-01-31T02:42:36.802Z,7.35
2023-01-31T02:45:12.058Z,7.37
2023-01-31T02:47:52.114Z,7.26
2023-01-31T02:50:30.044Z,7.29
2023-01-31T02:53:05.864Z,7.31
2023-01-31T02:55:58.697Z,7.31
2023-01-31T02:58:32.958Z,7.33
2023-01-31T03:01:05.993Z,7.51
2023-01-31T03:03:39.468Z,7.51
2023-01-31T03:06:54.928Z,7.59
2023-01-31T03:10:00.589Z,7.56
2023-01-31T03:12:51.666Z,7.33
2023-01-31T03:16:14.392Z,7.50
2023-01-31T03:18:52.806Z,7.48
2023-01-31T03:21:32.868Z,7.52
2023-01-31T03:24:02.909Z,7.54
2023-01-31T03:26:32.012Z,7.57
2023-01-31T03:29:04.486Z,7.52
2023-01-31T03:31:40.451Z,7.53
2023-01-31T03:34:14.091Z,7.52
2023-01-31T03:36:53.833Z,7.53
2023-01-31T03:39:37.896Z,7.42
2023-01-31T03:42:09.505Z,7.55
2023-01-31T03:44:48.201Z,7.74
2023-01-31T03:47:22.734Z,7.70
2023-01-31T03:49:53.884Z,7.49
2023-01-31T03:52:30.939Z,7.54
2023-01-31T03:55:07.437Z,7.52
2023-01-31T03:57:41.018Z,7.43
2023-01-31T04:00:14.553Z,7.61
2023-01-31T04:02:43.796Z,7.45
2023-01-31T04:05:19.579Z,7.52
2023-01-31T04:07:50.374Z,7.45
2023-01-31T04:10:21.308Z,7.53
2023-01-31T04:12:49.902Z,7.53
2023-01-31T04:15:19.013Z,7.80
2023-01-31T04:17:47.573Z,7.72
2023-01-31T04:20:17.343Z,7.74
2023-01-31T04:22:46.107Z,7.80
2023-01-31T04:25:17.839Z,7.84
2023-01-31T04:27:46.531Z,7.78
2023-01-31T04:30:16.181Z,7.78
2023-01-31T04:32:45.154Z,7.54
2023-01-31T04:35:14.070Z,7.87
2023-01-31T04:37:43.291Z,7.94
2023-01-31T04:40:14.047Z,8.01
2023-01-31T04:42:44.491Z,8.09
2023-01-31T04:45:13.569Z,7.95
2023-01-31T04:47:42.574Z,8.09
2023-01-31T04:50:12.743Z,8.23
2023-01-31T04:52:41.407Z,7.97
2023-01-31T04:55:11.782Z,8.27
2023-01-31T04:57:40.546Z,8.28
2023-01-31T05:00:13.454Z,8.17
2023-01-31T05:02:42.294Z,8.33
2023-01-31T05:05:14.595Z,8.27
2023-01-31T05:07:44.477Z,8.43
2023-01-31T05:10:13.958Z,8.37
2023-01-31T05:12:43.902Z,8.27
2023-01-31T05:15:17.288Z,8.50
2023-01-31T05:17:51.422Z,8.48
2023-01-31T05:20:59.261Z,8.11
2023-01-31T05:24:33.527Z,8.37
2023-01-31T05:27:04.694Z,8.20
2023-01-31T05:29:37.731Z,8.61
2023-01-31T05:33:20.813Z,8.19
2023-01-31T05:35:50.946Z,8.45
2023-01-31T05:38:19.709Z,8.56
2023-01-31T05:40:49.534Z,8.27
2023-01-31T05:43:21.239Z,8.64
2023-01-31T05:45:52.419Z,8.72
2023-01-31T05:48:22.893Z,8.59
2023-01-31T05:50:52.169Z,8.54
2023-01-31T05:53:22.896Z,8.51
2023-01-31T05:55:51.830Z,8.68
2023-01-31T05:58:20.775Z,8.62
2023-01-31T06:00:49.748Z,8.75
2023-01-31T06:03:18.679Z,8.61
2023-01-31T06:05:48.879Z,8.62
2023-01-31T06:08:17.916Z,8.69
2023-01-31T06:10:48.027Z,8.81
2023-01-31T06:13:17.139Z,8.58
2023-01-31T06:15:53.561Z,8.87
2023-01-31T06:18:26.382Z,8.92
2023-01-31T06:20:57.619Z,8.78
2023-01-31T06:23:28.025Z,8.41
2023-01-31T06:25:58.516Z,8.91
2023-01-31T06:28:27.644Z,8.75
2023-01-31T06:30:59.807Z,8.91
2023-01-31T06:33:38.381Z,8.76
2023-01-31T06:36:19.450Z,9.01
2023-01-31T06:38:57.434Z,8.87
2023-01-31T06:41:27.043Z,8.93
2023-01-31T06:43:56.245Z,8.99
2023-01-31T06:46:25.287Z,9.22
2023-01-31T06:48:54.562Z,9.23
2023-01-31T06:51:26.391Z,9.23
2023-01-31T06:56:52.727Z,8.95
2023-01-31T06:59:24.172Z,9.27
2023-01-31T07:01:54.595Z,9.15
2023-01-31T07:04:23.603Z,9.45
2023-01-31T07:06:54.062Z,9.21
2023-01-31T07:09:22.610Z,9.19
2023-01-31T07:11:51.223Z,9.28
2023-01-31T07:14:20.325Z,9.46
2023-01-31T07:16:49.402Z,9.27
2023-01-31T07:19:18.484Z,9.46
2023-01-31T07:21:49.350Z,9.35
2023-01-31T07:24:22.528Z,9.28
2023-01-31T07:26:57.317Z,9.01
2023-01-31T07:29:27.253Z,9.48
2023-01-31T07:31:57.830Z,9.28
2023-01-31T07:34:26.875Z,9.20
2023-01-31T07:36:55.362Z,9.28
2023-01-31T07:39:25.548Z,9.40
2023-01-31T07:41:54.384Z,9.42
2023-01-31T07:44:23.012Z,9.42
2023-01-31T07:46:54.935Z,9.32
2023-01-31T07:49:24.742Z,9.17
2023-01-31T07:51:54.601Z,9.22
2023-01-31T07:54:25.097Z,9.07
2023-01-31T07:56:54.293Z,8.87
2023-01-31T07:59:22.855Z,9.11
2023-01-31T08:02:09.043Z,9.05
2023-01-31T08:04:38.711Z,9.06
2023-01-31T08:07:07.548Z,9.01
2023-01-31T08:09:39.091Z,9.00
2023-01-31T08:12:08.289Z,9.09
2023-01-31T08:14:37.172Z,9.04
2023-01-31T08:17:08.942Z,9.17
2023-01-31T08:19:37.817Z,9.08
2023-01-31T08:22:07.374Z,9.14
2023-01-31T08:24:40.481Z,9.11
2023-01-31T08:27:09.084Z,9.12
2023-01-31T08:29:38.644Z,9.22
2023-01-31T08:32:07.877Z,9.10
2023-01-31T08:34:36.727Z,9.25
2023-01-31T08:37:06.278Z,9.47
2023-01-31T08:39:36.174Z,9.24
2023-01-31T08:42:05.341Z,9.55
2023-01-31T08:44:33.971Z,9.52
2023-01-31T08:47:02.895Z,9.57
2023-01-31T08:49:33.775Z,9.67
2023-01-31T08:52:02.426Z,9.57
2023-01-31T08:54:31.553Z,9.74
2023-01-31T08:57:01.929Z,9.95
2023-01-31T08:59:31.553Z,9.53
2023-01-31T09:02:00.434Z,9.91
2023-01-31T09:04:29.018Z,9.84
2023-01-31T09:06:57.484Z,9.90
2023-01-31T09:09:27.728Z,9.95
2023-01-31T09:11:57.308Z,9.95
2023-01-31T09:14:29.982Z,9.88
2023-01-31T09:16:59.730Z,10.25
2023-01-31T09:19:28.781Z,10.19
2023-01-31T09:21:57.251Z,10.13
2023-01-31T09:24:26.126Z,10.11
2023-01-31T09:26:56.549Z,9.81
2023-01-31T09:29:28.588Z,10.05
2023-01-31T09:31:57.229Z,10.19
2023-01-31T09:34:25.774Z,10.15
2023-01-31T09:36:57.059Z,10.13
2023-01-31T09:39:26.060Z,10.32
2023-01-31T09:42:01.382Z,10.51
2023-01-31T09:44:33.537Z,10.06
2023-01-31T09:47:19.845Z,10.19
2023-01-31T09:49:53.761Z,10.31
2023-01-31T09:52:23.908Z,10.63
2023-01-31T09:54:52.365Z,10.65
2023-01-31T09:57:34.355Z,10.87
2023-01-31T10:00:19.907Z,10.55
2023-01-31T10:03:41.570Z,10.69
2023-01-31T10:06:19.841Z,11.09
2023-01-31T10:08:58.088Z,10.94
2023-01-31T10:11:37.768Z,11.01
2023-01-31T10:14:21.753Z,10.98
2023-01-31T10:17:05.396Z,11.03
2023-01-31T10:19:45.356Z,10.61
2023-01-31T10:22:22.505Z,10.84
2023-01-31T10:24:58.820Z,10.84
2023-01-31T10:27:42.053Z,10.89
2023-01-31T10:30:19.982Z,10.97
2023-01-31T10:32:56.197Z,11.06
2023-01-31T10:35:31.693Z,10.96
2023-01-31T10:38:06.155Z,10.87
2023-01-31T10:40:39.123Z,10.73
2023-01-31T10:43:18.333Z,10.88
2023-01-31T10:45:48.208Z,10.94
2023-01-31T10:48:21.049Z,10.81
2023-01-31T10:51:04.870Z,10.81
2023-01-31T10:53:53.288Z,10.47
2023-01-31T10:56:31.988Z,10.58
2023-01-31T10:59:04.007Z,10.30
2023-01-31T11:01:32.761Z,10.99
2023-01-31T11:04:04.025Z,10.93
2023-01-31T11:06:32.771Z,11.09
2023-01-31T11:09:04.331Z,10.97
2023-01-31T11:11:32.771Z,10.87
2023-01-31T11:14:03.084Z,10.75
2023-01-31T11:16:35.548Z,11.01
2023-01-31T11:19:17.315Z,10.77
2023-01-31T11:21:51.994Z,11.03
2023-01-31T11:24:24.248Z,10.82
2023-01-31T11:26:58.772Z,11.15
2023-01-31T11:29:32.659Z,10.91
2023-01-31T11:32:06.575Z,11.24
2023-01-31T11:34:37.619Z,10.94
2023-01-31T11:37:15.479Z,11.21
2023-01-31T11:39:55.065Z,11.06
2023-01-31T11:42:23.635Z,11.23
2023-01-31T11:45:01.352Z,11.43
2023-01-31T11:47:40.602Z,11.19
2023-01-31T11:50:22.910Z,11.68
2023-01-31T11:52:58.414Z,11.56
2023-01-31T11:55:27.931Z,11.55
2023-01-31T11:57:59.940Z,11.64
2023-01-31T12:00:34.939Z,11.31
2023-01-31T12:03:08.953Z,11.94
2023-01-31T12:05:45.878Z,11.65
2023-01-31T12:08:31.637Z,11.58
2023-01-31T12:11:00.505Z,12.18
2023-01-31T12:13:29.526Z,12.07
2023-01-31T12:16:02.690Z,12.12
2023-01-31T12:19:01.262Z,11.95
2023-01-31T12:21:53.590Z,11.81
2023-01-31T12:24:38.859Z,11.98
2023-01-31T12:27:25.975Z,12.06
2023-01-31T12:30:29.326Z,12.21
2023-01-31T12:33:17.317Z,12.64
2023-01-31T12:36:06.398Z,12.26
2023-01-31T12:38:58.832Z,12.16
2023-01-31T12:41:38.516Z,12.37
2023-01-31T12:44:39.613Z,12.05
2023-01-31T12:47:42.117Z,12.28
2023-01-31T12:50:33.552Z,12.22
2023-01-31T12:53:29.094Z,12.30
2023-01-31T12:56:16.037Z,12.44
2023-01-31T12:59:13.868Z,12.58
2023-01-31T13:02:15.568Z,12.62
2023-01-31T13:04:50.675Z,12.47
2023-01-31T13:07:25.601Z,12.80
2023-01-31T13:09:56.186Z,12.70
2023-01-31T13:12:31.638Z,12.50
2023-01-31T13:15:06.310Z,12.75
2023-01-31T13:17:39.932Z,12.97
2023-01-31T13:20:30.679Z,12.80
2023-01-31T13:23:05.393Z,12.92
2023-01-31T13:25:40.642Z,12.69
2023-01-31T13:28:19.769Z,12.94
2023-01-31T13:30:56.965Z,12.47
2023-01-31T13:33:36.902Z,12.85
2023-01-31T13:36:18.087Z,12.69
2023-01-31T13:38:47.768Z,12.56
2023-01-31T13:41:25.960Z,12.77
2023-01-31T13:43:57.739Z,12.88
2023-01-31T13:46:35.529Z,12.71
2023-01-31T13:49:09.627Z,12.72
2023-01-31T13:51:45.377Z,12.46
2023-01-31T13:54:21.094Z,12.30
2023-01-31T13:56:54.829Z,12.31
2023-01-31T13:59:28.849Z,12.36
2023-01-31T14:02:01.519Z,12.70
2023-01-31T14:04:35.056Z,12.59
2023-01-31T14:07:28.924Z,12.50
2023-01-31T14:10:29.311Z,12.15
2023-01-31T14:13:42.972Z,12.25
2023-01-31T14:16:40.183Z,12.29
2023-01-31T14:19:55.034Z,12.02
2023-01-31T14:22:26.945Z,12.20
2023-01-31T14:25:01.193Z,12.24
2023-01-31T14:27:38.154Z,12.03
2023-01-31T14:30:34.775Z,12.31
2023-01-31T14:33:32.934Z,12.54
2023-01-31T14:36:53.506Z,12.57
2023-01-31T14:40:02.324Z,12.37
2023-01-31T14:43:01.086Z,12.15
2023-01-31T14:45:57.669Z,12.05
2023-01-31T14:49:06.271Z,12.11
2023-01-31T14:52:08.545Z,11.96
2023-01-31T14:55:00.887Z,11.87
2023-01-31T14:57:33.633Z,12.16
2023-01-31T15:00:08.870Z,12.11
2023-01-31T15:02:56.842Z,11.83
2023-01-31T15:05:47.142Z,12.04
2023-01-31T15:08:49.526Z,12.05
2023-01-31T15:11:42.316Z,11.91
2023-01-31T15:14:36.530Z,11.81
2023-01-31T15:17:31.682Z,11.77
2023-01-31T15:20:16.672Z,11.94
2023-01-31T15:22:56.702Z,12.18
2023-01-31T15:25:37.116Z,12.21
2023-01-31T15:28:10.233Z,12.10
2023-01-31T15:30:41.277Z,12.04
2023-01-31T15:33:18.949Z,11.98
2023-01-31T15:35:55.363Z,11.95
2023-01-31T15:38:32.421Z,12.04
2023-01-31T15:41:17.774Z,11.70
2023-01-31T15:43:46.766Z,11.50
2023-01-31T15:46:23.293Z,11.45
2023-01-31T15:48:53.901Z,11.49
2023-01-31T15:51:23.485Z,11.27
2023-01-31T15:54:06.297Z,11.54
2023-01-31T15:56:39.980Z,11.66
2023-01-31T15:59:15.401Z,11.48
2023-01-31T16:01:51.536Z,11.27
2023-01-31T16:04:20.587Z,11.23
2023-01-31T16:06:49.388Z,11.20
2023-01-31T16:09:28.246Z,11.11
2023-01-31T16:11:57.529Z,10.99
2023-01-31T16:14:27.054Z,10.71
2023-01-31T16:16:58.854Z,10.64
2023-01-31T16:19:33.291Z,10.80
2023-01-31T16:22:01.911Z,10.86
2023-01-31T16:24:33.133Z,10.60
2023-01-31T16:27:07.196Z,10.52
2023-01-31T16:29:43.605Z,10.91
2023-01-31T16:32:23.069Z,10.60
2023-01-31T16:34:58.169Z,10.65
2023-01-31T16:37:36.827Z,10.46
2023-01-31T16:40:20.913Z,10.55
2023-01-31T16:42:50.246Z,10.23
2023-01-31T16:45:31.451Z,10.36
2023-01-31T16:48:21.821Z,10.42
2023-01-31T16:50:50.938Z,10.27
2023-01-31T16:53:36.740Z,10.28
2023-01-31T16:56:23.407Z,10.31
2023-01-31T16:58:58.197Z,10.17
2023-01-31T17:01:32.856Z,9.95
2023-01-31T17:04:07.484Z,10.40
2023-01-31T17:06:36.935Z,10.20
2023-01-31T17:09:08.957Z,10.11
2023-01-31T17:11:43.691Z,10.06
2023-01-31T17:14:12.691Z,10.07
2023-01-31T17:16:42.178Z,9.98
2023-01-31T17:19:11.999Z,9.97
2023-01-31T17:21:43.938Z,9.96
2023-01-31T17:24:15.835Z,9.93
2023-01-31T17:26:46.206Z,9.97
2023-01-31T17:29:14.568Z,9.88
2023-01-31T17:31:45.032Z,10.01
2023-01-31T17:34:25.079Z,9.72
2023-01-31T17:36:54.125Z,9.72
2023-01-31T17:39:22.958Z,9.88
2023-01-31T17:41:53.686Z,10.02
2023-01-31T17:44:22.478Z,9.69
2023-01-31T17:46:51.176Z,9.66
2023-01-31T17:49:20.801Z,9.79
2023-01-31T17:51:49.699Z,9.94
2023-01-31T17:54:18.542Z,9.96
2023-01-31T17:56:47.090Z,9.93
2023-01-31T17:59:26.596Z,9.68
2023-01-31T18:01:56.088Z,9.84
2023-01-31T18:04:25.994Z,9.94
2023-01-31T18:06:54.785Z,9.75
2023-01-31T18:09:23.487Z,9.83
2023-01-31T18:11:54.465Z,9.79
2023-01-31T18:14:25.471Z,9.82
2023-01-31T18:16:54.439Z,9.87
2023-01-31T18:19:26.379Z,9.87
2023-01-31T18:21:55.809Z,9.43
2023-01-31T18:24:25.199Z,9.98
2023-01-31T18:26:53.979Z,9.83
2023-01-31T18:29:25.457Z,9.82
2023-01-31T18:31:58.134Z,9.86
2023-01-31T18:34:27.972Z,9.76
2023-01-31T18:36:56.561Z,9.82
2023-01-31T18:39:25.445Z,9.31
2023-01-31T18:41:54.552Z,9.74
2023-01-31T18:44:24.157Z,9.66
2023-01-31T18:46:55.792Z,9.93
2023-01-31T18:49:26.844Z,9.85
2023-01-31T18:51:55.527Z,9.42
2023-01-31T18:54:28.295Z,9.49
2023-01-31T18:56:57.162Z,9.60
2023-01-31T18:59:27.840Z,9.66
2023-01-31T19:02:00.860Z,9.25
2023-01-31T19:04:29.734Z,9.38
2023-01-31T19:06:58.408Z,9.47
2023-01-31T19:09:27.599Z,9.48
2023-01-31T19:11:56.512Z,9.31
2023-01-31T19:14:31.162Z,9.17
2023-01-31T19:17:01.531Z,9.07
2023-01-31T19:19:30.644Z,9.44
2023-01-31T19:21:59.064Z,9.36
2023-01-31T19:24:27.705Z,9.49
2023-01-31T19:26:56.774Z,9.39
2023-01-31T19:29:25.510Z,9.30
2023-01-31T19:31:56.326Z,9.40
2023-01-31T19:34:27.793Z,9.48
2023-01-31T19:36:58.903Z,9.18
2023-01-31T19:39:29.541Z,9.42
2023-01-31T19:41:59.165Z,9.41
2023-01-31T19:44:28.130Z,9.27
2023-01-31T19:46:56.979Z,9.31
2023-01-31T19:49:27.408Z,9.42
2023-01-31T19:51:56.112Z,9.53
2023-01-31T19:54:27.125Z,9.37
2023-01-31T19:56:59.861Z,9.30
2023-01-31T19:59:30.163Z,9.03
2023-01-31T20:01:58.845Z,9.04
2023-01-31T20:04:32.479Z,9.40
2023-01-31T20:07:01.684Z,9.34
2023-01-31T20:09:30.478Z,9.28
2023-01-31T20:12:00.114Z,9.15
2023-01-31T20:14:30.644Z,8.94
2023-01-31T20:16:59.396Z,9.21
2023-01-31T20:19:31.624Z,9.05
2023-01-31T20:22:03.411Z,9.24
2023-01-31T20:24:32.894Z,9.14
2023-01-31T20:27:02.233Z,9.31
2023-01-31T20:29:31.163Z,9.18
2023-01-31T20:32:00.809Z,9.05
2023-01-31T20:34:31.009Z,9.43
2023-01-31T20:36:59.951Z,9.12
2023-01-31T20:39:29.033Z,8.91
2023-01-31T20:41:58.349Z,9.22
2023-01-31T20:44:26.895Z,9.13
2023-01-31T20:46:55.905Z,9.17
2023-01-31T20:49:25.663Z,9.20
2023-01-31T20:51:55.971Z,9.29
2023-01-31T20:54:25.012Z,9.37
2023-01-31T20:56:53.894Z,9.23
2023-01-31T20:59:22.684Z,9.12
2023-01-31T21:01:51.635Z,9.31
2023-01-31T21:04:21.163Z,9.19
2023-01-31T21:06:49.822Z,9.21
2023-01-31T21:09:23.024Z,8.93
2023-01-31T21:11:52.007Z,9.22
2023-01-31T21:14:20.642Z,9.11
2023-01-31T21:16:49.481Z,9.20
2023-01-31T21:19:19.161Z,9.06
2023-01-31T21:21:47.698Z,9.32
2023-01-31T21:24:16.925Z,9.22
2023-01-31T21:26:46.973Z,9.15
2023-01-31T21:29:30.799Z,8.95
2023-01-31T21:31:59.621Z,9.22
2023-01-31T21:34:28.323Z,9.13
2023-01-31T21:36:58.126Z,9.21
2023-01-31T21:39:26.751Z,9.32
2023-01-31T21:42:14.434Z,9.04
2023-01-31T21:44:43.661Z,9.36
2023-01-31T21:47:12.765Z,9.37
2023-01-31T21:49:41.621Z,9.13
2023-01-31T21:52:10.258Z,9.26
2023-01-31T21:54:38.791Z,9.35
2023-01-31T21:57:08.850Z,9.48
2023-01-31T21:59:39.173Z,9.38
2023-01-31T22:02:08.012Z,9.15
2023-01-31T22:04:36.501Z,9.17
2023-01-31T22:07:06.432Z,8.80
2023-01-31T22:09:35.206Z,9.23
2023-01-31T22:12:03.782Z,9.29
2023-01-31T22:14:33.820Z,9.21
2023-01-31T22:17:05.252Z,9.34
2023-01-31T22:19:35.256Z,8.89
2023-01-31T22:22:04.398Z,9.26
2023-01-31T22:24:34.535Z,9.06
2023-01-31T22:27:03.297Z,9.18
2023-01-31T22:29:33.582Z,9.03
2023-01-31T22:32:02.288Z,9.02
2023-01-31T22:34:31.006Z,9.06
2023-01-31T22:36:59.816Z,9.07
2023-01-31T22:39:28.338Z,9.24
2023-01-31T22:41:57.334Z,9.24
2023-01-31T22:44:25.791Z,9.20
2023-01-31T22:46:55.799Z,9.18
2023-01-31T22:49:24.680Z,9.03
2023-01-31T22:51:53.242Z,9.41
2023-01-31T22:54:22.034Z,9.29
2023-01-31T22:56:50.730Z,9.11
2023-01-31T22:59:19.498Z,9.09
2023-01-31T23:01:47.930Z,9.22
2023-01-31T23:04:19.267Z,9.21
2023-01-31T23:06:47.724Z,9.30
2023-01-31T23:09:16.282Z,9.02
2023-01-31T23:11:44.755Z,9.36
2023-01-31T23:14:13.249Z,9.39
2023-01-31T23:16:59.004Z,9.38
2023-01-31T23:19:28.885Z,9.30
2023-01-31T23:21:57.310Z,9.53
2023-01-31T23:24:25.828Z,9.31
2023-01-31T23:26:56.535Z,9.41
2023-01-31T23:29:25.045Z,9.20
2023-01-31T23:31:53.726Z,9.45
2023-01-31T23:34:22.369Z,9.38
2023-01-31T23:36:52.385Z,9.37
2023-01-31T23:39:20.692Z,9.37
2023-01-31T23:41:49.159Z,9.47
2023-01-31T23:44:17.698Z,9.41
2023-01-31T23:46:46.423Z,9.50
2023-01-31T23:49:14.823Z,9.55
2023-01-31T23:51:43.663Z,9.54
2023-01-31T23:54:13.478Z,9.52
2023-01-31T23:56:41.918Z,9.73
2023-01-31T23:59:10.669Z,9.64
